sensor_id;sensor_type;location;lat;lon;timestamp;pressure;altitude;pressure_sealevel;temperature;humidity
27685;BME280;46113;50.130;8.526;2023-09-18T00:01:37;98463.41;;;13.63;97.32
27685;BME280;46113;50.130;8.526;2023-09-18T00:04:06;98466.91;;;13.64;97.00
27685;BME280;46113;50.130;8.526;2023-09-18T00:06:33;98467.09;;;13.72;96.49
27685;BME280;46113;50.130;8.526;2023-09-18T00:09:00;98465.19;;;13.74;95.63
27685;BME280;46113;50.130;8.526;2023-09-18T00:11:27;98469.50;;;13.75;94.89
27685;BME280;46113;50.130;8.526;2023-09-18T00:13:54;98466.59;;;13.78;94.47
27685;BME280;46113;50.130;8.526;2023-09-18T00:16:21;98464.78;;;13.79;94.49
27685;BME280;46113;50.130;8.526;2023-09-18T00:18:48;98461.63;;;13.85;94.10
27685;BME280;46113;50.130;8.526;2023-09-18T00:21:16;98455.03;;;13.89;93.49
27685;BME280;46113;50.130;8.526;2023-09-18T00:23:43;98450.59;;;13.90;92.37
27685;BME280;46113;50.130;8.526;2023-09-18T00:26:10;98449.72;;;13.89;92.14
27685;BME280;46113;50.130;8.526;2023-09-18T00:28:40;98453.78;;;13.84;92.86
27685;BME280;46113;50.130;8.526;2023-09-18T00:31:06;98450.50;;;13.80;92.92
27685;BME280;46113;50.130;8.526;2023-09-18T00:33:34;98460.97;;;13.72;94.41
27685;BME280;46113;50.130;8.526;2023-09-18T00:36:01;98455.88;;;13.69;94.19
27685;BME280;46113;50.130;8.526;2023-09-18T00:38:28;98457.00;;;13.66;94.75
27685;BME280;46113;50.130;8.526;2023-09-18T00:40:55;98448.19;;;13.65;94.58
27685;BME280;46113;50.130;8.526;2023-09-18T00:43:23;98441.16;;;13.64;95.03
27685;BME280;46113;50.130;8.526;2023-09-18T00:45:50;98443.00;;;13.64;95.18
27685;BME280;46113;50.130;8.526;2023-09-18T00:48:17;98429.13;;;13.60;95.14
27685;BME280;46113;50.130;8.526;2023-09-18T00:50:45;98429.72;;;13.64;94.80
27685;BME280;46113;50.130;8.526;2023-09-18T00:53:31;98421.00;;;13.62;94.81
27685;BME280;46113;50.130;8.526;2023-09-18T00:56:00;98424.28;;;13.65;95.01
27685;BME280;46113;50.130;8.526;2023-09-18T00:58:27;98428.34;;;13.70;94.53
27685;BME280;46113;50.130;8.526;2023-09-18T01:00:55;98425.84;;;13.68;94.53
27685;BME280;46113;50.130;8.526;2023-09-18T01:03:22;98425.84;;;13.68;94.60
27685;BME280;46113;50.130;8.526;2023-09-18T01:05:53;98423.53;;;13.63;95.13
27685;BME280;46113;50.130;8.526;2023-09-18T01:08:21;98419.34;;;13.61;94.98
27685;BME280;46113;50.130;8.526;2023-09-18T01:13:45;98421.16;;;13.60;95.09
27685;BME280;46113;50.130;8.526;2023-09-18T01:16:19;98412.59;;;13.57;95.49
27685;BME280;46113;50.130;8.526;2023-09-18T01:18:51;98403.06;;;13.54;95.52
27685;BME280;46113;50.130;8.526;2023-09-18T01:21:19;98392.94;;;13.48;95.49
27685;BME280;46113;50.130;8.526;2023-09-18T01:23:48;98388.38;;;13.50;95.48
27685;BME280;46113;50.130;8.526;2023-09-18T01:26:15;98378.56;;;13.50;95.64
27685;BME280;46113;50.130;8.526;2023-09-18T01:28:43;98373.78;;;13.44;95.73
27685;BME280;46113;50.130;8.526;2023-09-18T01:31:10;98372.56;;;13.48;96.05
27685;BME280;46113;50.130;8.526;2023-09-18T01:33:38;98378.56;;;13.50;95.85
27685;BME280;46113;50.130;8.526;2023-09-18T01:36:08;98381.97;;;13.52;95.86
27685;BME280;46113;50.130;8.526;2023-09-18T01:38:36;98383.19;;;13.48;95.65
27685;BME280;46113;50.130;8.526;2023-09-18T01:41:03;98389.31;;;13.49;95.85
27685;BME280;46113;50.130;8.526;2023-09-18T01:43:31;98386.16;;;13.55;96.06
27685;BME280;46113;50.130;8.526;2023-09-18T01:45:58;98377.53;;;13.63;96.16
27685;BME280;46113;50.130;8.526;2023-09-18T01:48:25;98372.69;;;13.68;95.70
27685;BME280;46113;50.130;8.526;2023-09-18T01:50:52;98378.00;;;13.68;95.21
27685;BME280;46113;50.130;8.526;2023-09-18T01:53:19;98367.22;;;13.70;94.65
27685;BME280;46113;50.130;8.526;2023-09-18T01:55:46;98365.53;;;13.69;94.67
27685;BME280;46113;50.130;8.526;2023-09-18T01:58:14;98357.69;;;13.67;94.19
27685;BME280;46113;50.130;8.526;2023-09-18T02:00:43;98354.34;;;13.65;94.52
27685;BME280;46113;50.130;8.526;2023-09-18T02:03:11;98353.09;;;13.69;94.44
27685;BME280;46113;50.130;8.526;2023-09-18T02:05:58;98350.81;;;13.64;94.33
27685;BME280;46113;50.130;8.526;2023-09-18T02:08:25;98345.66;;;13.63;94.56
27685;BME280;46113;50.130;8.526;2023-09-18T02:10:54;98339.69;;;13.71;93.74
27685;BME280;46113;50.130;8.526;2023-09-18T02:13:21;98341.25;;;13.73;93.33
27685;BME280;46113;50.130;8.526;2023-09-18T02:15:48;98336.88;;;13.72;93.55
27685;BME280;46113;50.130;8.526;2023-09-18T02:18:16;98340.38;;;13.73;93.44
27685;BME280;46113;50.130;8.526;2023-09-18T02:20:43;98350.16;;;13.72;94.70
27685;BME280;46113;50.130;8.526;2023-09-18T02:23:15;98344.47;;;13.77;93.54
27685;BME280;46113;50.130;8.526;2023-09-18T02:25:42;98343.50;;;13.78;93.81
27685;BME280;46113;50.130;8.526;2023-09-18T02:28:09;98333.72;;;13.78;93.40
27685;BME280;46113;50.130;8.526;2023-09-18T02:30:37;98332.41;;;13.73;93.97
27685;BME280;46113;50.130;8.526;2023-09-18T02:33:04;98327.34;;;13.70;93.96
27685;BME280;46113;50.130;8.526;2023-09-18T02:35:34;98317.47;;;13.82;92.52
27685;BME280;46113;50.130;8.526;2023-09-18T02:38:01;98316.00;;;13.99;91.36
27685;BME280;46113;50.130;8.526;2023-09-18T02:40:30;98302.22;;;14.05;91.22
27685;BME280;46113;50.130;8.526;2023-09-18T02:42:57;98295.22;;;14.04;91.15
27685;BME280;46113;50.130;8.526;2023-09-18T02:45:24;98302.22;;;14.05;91.45
27685;BME280;46113;50.130;8.526;2023-09-18T02:47:51;98301.38;;;14.04;91.88
27685;BME280;46113;50.130;8.526;2023-09-18T02:50:18;98314.25;;;14.09;91.80
27685;BME280;46113;50.130;8.526;2023-09-18T02:52:46;98352.78;;;14.15;92.44
27685;BME280;46113;50.130;8.526;2023-09-18T02:55:13;98481.53;;;14.12;92.73
27685;BME280;46113;50.130;8.526;2023-09-18T02:57:42;98455.13;;;14.52;91.38
27685;BME280;46113;50.130;8.526;2023-09-18T03:00:10;98544.06;;;14.49;97.33
27685;BME280;46113;50.130;8.526;2023-09-18T03:02:37;98539.06;;;14.35;97.61
27685;BME280;46113;50.130;8.526;2023-09-18T03:05:04;98515.44;;;14.41;97.49
27685;BME280;46113;50.130;8.526;2023-09-18T03:07:32;98544.84;;;14.40;97.92
27685;BME280;46113;50.130;8.526;2023-09-18T03:09:59;98541.72;;;14.35;98.95
27685;BME280;46113;50.130;8.526;2023-09-18T03:12:26;98550.09;;;14.30;98.93
27685;BME280;46113;50.130;8.526;2023-09-18T03:14:55;98543.63;;;14.23;100.00
27685;BME280;46113;50.130;8.526;2023-09-18T03:17:22;98536.63;;;14.22;100.00
27685;BME280;46113;50.130;8.526;2023-09-18T03:19:49;98509.69;;;14.15;100.00
27685;BME280;46113;50.130;8.526;2023-09-18T03:22:16;98506.19;;;14.14;100.00
27685;BME280;46113;50.130;8.526;2023-09-18T03:24:43;98490.34;;;14.13;100.00
27685;BME280;46113;50.130;8.526;2023-09-18T03:27:10;98479.00;;;14.11;100.00
27685;BME280;46113;50.130;8.526;2023-09-18T03:29:37;98464.03;;;14.10;100.00
27685;BME280;46113;50.130;8.526;2023-09-18T03:32:05;98436.47;;;14.11;100.00
27685;BME280;46113;50.130;8.526;2023-09-18T03:34:32;98417.78;;;14.01;100.00
27685;BME280;46113;50.130;8.526;2023-09-18T03:36:59;98407.75;;;14.04;100.00
27685;BME280;46113;50.130;8.526;2023-09-18T03:39:27;98410.63;;;14.01;100.00
27685;BME280;46113;50.130;8.526;2023-09-18T03:41:54;98403.50;;;14.02;100.00
27685;BME280;46113;50.130;8.526;2023-09-18T03:44:21;98395.91;;;13.97;100.00
27685;BME280;46113;50.130;8.526;2023-09-18T03:46:50;98393.91;;;13.89;100.00
27685;BME280;46113;50.130;8.526;2023-09-18T03:49:17;98392.75;;;13.82;100.00
27685;BME280;46113;50.130;8.526;2023-09-18T03:51:44;98384.34;;;13.77;100.00
27685;BME280;46113;50.130;8.526;2023-09-18T03:54:11;98373.94;;;13.74;100.00
27685;BME280;46113;50.130;8.526;2023-09-18T03:56:38;98377.84;;;13.70;100.00
27685;BME280;46113;50.130;8.526;2023-09-18T03:59:05;98370.97;;;13.67;100.00
27685;BME280;46113;50.130;8.526;2023-09-18T04:01:32;98350.97;;;13.63;100.00
27685;BME280;46113;50.130;8.526;2023-09-18T04:03:59;98337.81;;;13.61;100.00
27685;BME280;46113;50.130;8.526;2023-09-18T04:06:57;98330.41;;;13.65;100.00
27685;BME280;46113;50.130;8.526;2023-09-18T04:09:24;98316.03;;;13.68;100.00
27685;BME280;46113;50.130;8.526;2023-09-18T04:11:51;98313.63;;;13.64;100.00
27685;BME280;46113;50.130;8.526;2023-09-18T04:14:19;98298.28;;;13.68;100.00
27685;BME280;46113;50.130;8.526;2023-09-18T04:16:46;98296.44;;;13.69;100.00
27685;BME280;46113;50.130;8.526;2023-09-18T04:19:13;98298.28;;;13.68;100.00
27685;BME280;46113;50.130;8.526;2023-09-18T04:21:40;98308.75;;;13.70;100.00
27685;BME280;46113;50.130;8.526;2023-09-18T04:24:14;98296.56;;;13.67;100.00
27685;BME280;46113;50.130;8.526;2023-09-18T04:26:40;98296.44;;;13.69;100.00
27685;BME280;46113;50.130;8.526;2023-09-18T04:29:08;98291.97;;;13.69;100.00
27685;BME280;46113;50.130;8.526;2023-09-18T04:31:35;98292.69;;;13.71;100.00
27685;BME280;46113;50.130;8.526;2023-09-18T04:34:02;98297.53;;;13.66;100.00
27685;BME280;46113;50.130;8.526;2023-09-18T04:36:29;98309.03;;;13.67;100.00
27685;BME280;46113;50.130;8.526;2023-09-18T04:38:56;98306.94;;;13.70;100.00
27685;BME280;46113;50.130;8.526;2023-09-18T04:41:23;98323.00;;;13.69;100.00
27685;BME280;46113;50.130;8.526;2023-09-18T04:43:52;98324.13;;;13.66;100.00
27685;BME280;46113;50.130;8.526;2023-09-18T04:46:19;98330.28;;;13.67;100.00
27685;BME280;46113;50.130;8.526;2023-09-18T04:48:46;98333.94;;;13.65;100.00
27685;BME280;46113;50.130;8.526;2023-09-18T04:51:13;98344.56;;;13.65;100.00
27685;BME280;46113;50.130;8.526;2023-09-18T04:53:39;98353.34;;;13.66;100.00
27685;BME280;46113;50.130;8.526;2023-09-18T04:56:08;98350.56;;;13.68;100.00
27685;BME280;46113;50.130;8.526;2023-09-18T04:58:37;98354.91;;;13.69;100.00
27685;BME280;46113;50.130;8.526;2023-09-18T05:01:04;98359.97;;;13.72;100.00
27685;BME280;46113;50.130;8.526;2023-09-18T05:03:34;98365.41;;;13.70;100.00
27685;BME280;46113;50.130;8.526;2023-09-18T05:06:08;98369.75;;;13.71;100.00
27685;BME280;46113;50.130;8.526;2023-09-18T05:08:35;98363.31;;;13.74;100.00
27685;BME280;46113;50.130;8.526;2023-09-18T05:11:02;98364.31;;;13.73;100.00
27685;BME280;46113;50.130;8.526;2023-09-18T05:13:29;98356.09;;;13.76;100.00
27685;BME280;46113;50.130;8.526;2023-09-18T05:15:55;98357.03;;;13.75;100.00
27685;BME280;46113;50.130;8.526;2023-09-18T05:18:22;98355.47;;;13.72;100.00
27685;BME280;46113;50.130;8.526;2023-09-18T05:20:49;98343.91;;;13.73;100.00
27685;BME280;46113;50.130;8.526;2023-09-18T05:23:16;98330.06;;;13.79;100.00
27685;BME280;46113;50.130;8.526;2023-09-18T05:25:44;98315.44;;;13.85;100.00
27685;BME280;46113;50.130;8.526;2023-09-18T05:28:11;98292.44;;;13.84;100.00
27685;BME280;46113;50.130;8.526;2023-09-18T05:30:38;98291.50;;;13.85;100.00
27685;BME280;46113;50.130;8.526;2023-09-18T05:33:07;98272.72;;;13.87;100.00
27685;BME280;46113;50.130;8.526;2023-09-18T05:35:45;98272.91;;;13.95;100.00
27685;BME280;46113;50.130;8.526;2023-09-18T05:38:12;98285.09;;;13.98;100.00
27685;BME280;46113;50.130;8.526;2023-09-18T05:40:44;98290.53;;;13.96;100.00
27685;BME280;46113;50.130;8.526;2023-09-18T05:43:11;98309.28;;;13.95;100.00
27685;BME280;46113;50.130;8.526;2023-09-18T05:45:38;98304.28;;;14.01;100.00
27685;BME280;46113;50.130;8.526;2023-09-18T05:48:06;98289.31;;;14.00;100.00
27685;BME280;46113;50.130;8.526;2023-09-18T05:50:34;98302.22;;;14.05;100.00
27685;BME280;46113;50.130;8.526;2023-09-18T05:53:02;98300.53;;;14.04;100.00
27685;BME280;46113;50.130;8.526;2023-09-18T05:55:33;98297.16;;;14.02;100.00
27685;BME280;46113;50.130;8.526;2023-09-18T05:58:00;98301.63;;;14.01;100.00
27685;BME280;46113;50.130;8.526;2023-09-18T06:00:30;98298.31;;;14.09;100.00
27685;BME280;46113;50.130;8.526;2023-09-18T06:02:57;98306.72;;;14.14;100.00
27685;BME280;46113;50.130;8.526;2023-09-18T06:05:25;98306.03;;;14.12;100.00
27685;BME280;46113;50.130;8.526;2023-09-18T06:07:52;98299.59;;;14.15;100.00
27685;BME280;46113;50.130;8.526;2023-09-18T06:10:19;98303.97;;;14.26;100.00
27685;BME280;46113;50.130;8.526;2023-09-18T06:12:46;98288.88;;;14.36;100.00
27685;BME280;46113;50.130;8.526;2023-09-18T06:15:13;98290.25;;;14.40;100.00
27685;BME280;46113;50.130;8.526;2023-09-18T06:17:44;98285.78;;;14.51;100.00
27685;BME280;46113;50.130;8.526;2023-09-18T06:20:11;98295.84;;;14.27;100.00
27685;BME280;46113;50.130;8.526;2023-09-18T06:22:42;98318.44;;;14.53;100.00
27685;BME280;46113;50.130;8.526;2023-09-18T06:25:09;98324.19;;;14.58;100.00
27685;BME280;46113;50.130;8.526;2023-09-18T06:27:37;98324.19;;;14.68;100.00
27685;BME280;46113;50.130;8.526;2023-09-18T06:30:05;98329.25;;;14.71;100.00
27685;BME280;46113;50.130;8.526;2023-09-18T06:32:32;98351.94;;;14.65;100.00
27685;BME280;46113;50.130;8.526;2023-09-18T06:35:00;98363.00;;;14.61;100.00
27685;BME280;46113;50.130;8.526;2023-09-18T06:37:26;98379.41;;;14.66;100.00
27685;BME280;46113;50.130;8.526;2023-09-18T06:39:53;98369.31;;;14.69;100.00
27685;BME280;46113;50.130;8.526;2023-09-18T06:42:20;98366.38;;;14.73;100.00
27685;BME280;46113;50.130;8.526;2023-09-18T06:44:55;98367.38;;;14.71;100.00
27685;BME280;46113;50.130;8.526;2023-09-18T06:47:24;98372.69;;;14.81;100.00
27685;BME280;46113;50.130;8.526;2023-09-18T06:49:51;98365.13;;;14.96;100.00
27685;BME280;46113;50.130;8.526;2023-09-18T06:52:18;98352.00;;;15.24;100.00
27685;BME280;46113;50.130;8.526;2023-09-18T06:54:45;98341.72;;;15.49;100.00
27685;BME280;46113;50.130;8.526;2023-09-18T06:57:12;98357.16;;;15.66;100.00
27685;BME280;46113;50.130;8.526;2023-09-18T06:59:38;98353.75;;;15.73;100.00
27685;BME280;46113;50.130;8.526;2023-09-18T07:02:05;98342.50;;;15.89;100.00
27685;BME280;46113;50.130;8.526;2023-09-18T07:04:33;98347.47;;;16.12;100.00
27685;BME280;46113;50.130;8.526;2023-09-18T07:06:59;98342.31;;;16.29;100.00
27685;BME280;46113;50.130;8.526;2023-09-18T07:09:26;98330.69;;;16.48;100.00
27685;BME280;46113;50.130;8.526;2023-09-18T07:11:53;98327.38;;;16.64;99.54
27685;BME280;46113;50.130;8.526;2023-09-18T07:14:19;98325.88;;;16.80;98.42
27685;BME280;46113;50.130;8.526;2023-09-18T07:16:46;98339.84;;;16.92;97.06
27685;BME280;46113;50.130;8.526;2023-09-18T07:19:13;98348.63;;;17.20;95.59
27685;BME280;46113;50.130;8.526;2023-09-18T07:21:44;98362.69;;;17.23;94.83
27685;BME280;46113;50.130;8.526;2023-09-18T07:24:11;98366.09;;;17.33;94.54
27685;BME280;46113;50.130;8.526;2023-09-18T07:26:44;98365.25;;;17.32;93.24
27685;BME280;46113;50.130;8.526;2023-09-18T07:29:16;98372.59;;;17.30;87.50
27685;BME280;46113;50.130;8.526;2023-09-18T07:31:43;98373.50;;;17.39;86.86
27685;BME280;46113;50.130;8.526;2023-09-18T07:34:10;98377.31;;;17.55;86.19
27685;BME280;46113;50.130;8.526;2023-09-18T07:36:40;98386.25;;;17.27;79.79
27685;BME280;46113;50.130;8.526;2023-09-18T07:39:07;98380.81;;;17.37;80.86
27685;BME280;46113;50.130;8.526;2023-09-18T07:41:33;98393.28;;;17.28;82.56
27685;BME280;46113;50.130;8.526;2023-09-18T07:44:00;98382.81;;;16.99;82.79
27685;BME280;46113;50.130;8.526;2023-09-18T07:46:27;98376.00;;;16.86;84.18
27685;BME280;46113;50.130;8.526;2023-09-18T07:48:53;98371.63;;;16.95;79.62
27685;BME280;46113;50.130;8.526;2023-09-18T07:51:20;98372.38;;;17.05;79.91
27685;BME280;46113;50.130;8.526;2023-09-18T07:53:47;98371.53;;;17.05;82.08
27685;BME280;46113;50.130;8.526;2023-09-18T07:56:14;98369.16;;;17.02;83.99
27685;BME280;46113;50.130;8.526;2023-09-18T07:58:41;98373.53;;;17.03;85.95
27685;BME280;46113;50.130;8.526;2023-09-18T08:01:08;98368.72;;;17.06;88.02
27685;BME280;46113;50.130;8.526;2023-09-18T08:03:36;98371.63;;;17.13;88.74
27685;BME280;46113;50.130;8.526;2023-09-18T08:06:03;98382.59;;;17.10;84.72
27685;BME280;46113;50.130;8.526;2023-09-18T08:08:31;98387.69;;;17.21;86.71
27685;BME280;46113;50.130;8.526;2023-09-18T08:11:07;98386.53;;;17.42;86.80
27685;BME280;46113;50.130;8.526;2023-09-18T08:13:37;98389.03;;;17.17;81.96
27685;BME280;46113;50.130;8.526;2023-09-18T08:16:06;98398.44;;;17.48;80.66
27685;BME280;46113;50.130;8.526;2023-09-18T08:18:33;98408.28;;;17.47;80.39
27685;BME280;46113;50.130;8.526;2023-09-18T08:21:01;98409.56;;;17.53;76.70
27685;BME280;46113;50.130;8.526;2023-09-18T08:23:28;98407.22;;;17.77;78.86
27685;BME280;46113;50.130;8.526;2023-09-18T08:25:55;98407.72;;;17.80;71.58
27685;BME280;46113;50.130;8.526;2023-09-18T08:28:23;98402.59;;;17.87;73.33
27685;BME280;46113;50.130;8.526;2023-09-18T08:30:50;98404.66;;;17.93;72.80
27685;BME280;46113;50.130;8.526;2023-09-18T08:33:17;98398.88;;;18.06;77.66
27685;BME280;46113;50.130;8.526;2023-09-18T08:35:43;98403.25;;;18.42;76.49
27685;BME280;46113;50.130;8.526;2023-09-18T08:38:10;98408.25;;;18.10;70.26
27685;BME280;46113;50.130;8.526;2023-09-18T08:40:40;98402.59;;;18.40;72.81
27685;BME280;46113;50.130;8.526;2023-09-18T08:43:07;98408.59;;;18.34;72.22
27685;BME280;46113;50.130;8.526;2023-09-18T08:45:42;98403.63;;;18.47;70.27
27685;BME280;46113;50.130;8.526;2023-09-18T08:48:10;98411.09;;;18.35;69.55
27685;BME280;46113;50.130;8.526;2023-09-18T08:50:38;98401.91;;;18.38;72.77
27685;BME280;46113;50.130;8.526;2023-09-18T08:53:05;98412.88;;;18.00;73.77
27685;BME280;46113;50.130;8.526;2023-09-18T08:55:33;98405.91;;;18.07;71.36
27685;BME280;46113;50.130;8.526;2023-09-18T08:58:00;98405.75;;;18.09;74.67
27685;BME280;46113;50.130;8.526;2023-09-18T09:00:27;98408.69;;;17.97;69.61
27685;BME280;46113;50.130;8.526;2023-09-18T09:02:54;98392.72;;;18.40;68.29
27685;BME280;46113;50.130;8.526;2023-09-18T09:05:21;98398.59;;;18.18;68.54
27685;BME280;46113;50.130;8.526;2023-09-18T09:07:49;98388.56;;;18.46;70.07
27685;BME280;46113;50.130;8.526;2023-09-18T09:10:17;98394.06;;;18.45;65.99
27685;BME280;46113;50.130;8.526;2023-09-18T09:12:58;98402.50;;;18.66;68.25
27685;BME280;46113;50.130;8.526;2023-09-18T09:15:34;98398.16;;;18.65;67.73
27685;BME280;46113;50.130;8.526;2023-09-18T09:18:11;98383.34;;;18.45;68.32
27685;BME280;46113;50.130;8.526;2023-09-18T09:20:38;98388.19;;;18.41;66.86
27685;BME280;46113;50.130;8.526;2023-09-18T09:23:09;98391.59;;;18.25;71.76
27685;BME280;46113;50.130;8.526;2023-09-18T09:25:36;98391.25;;;18.20;71.10
27685;BME280;46113;50.130;8.526;2023-09-18T09:28:07;98368.00;;;18.47;67.74
27685;BME280;46113;50.130;8.526;2023-09-18T09:30:35;98373.78;;;18.77;68.90
27685;BME280;46113;50.130;8.526;2023-09-18T09:33:11;98365.41;;;18.97;67.59
27685;BME280;46113;50.130;8.526;2023-09-18T09:35:38;98364.06;;;19.01;67.86
27685;BME280;46113;50.130;8.526;2023-09-18T09:38:10;98360.72;;;18.82;67.88
27685;BME280;46113;50.130;8.526;2023-09-18T09:40:39;98366.84;;;18.58;69.46
27685;BME280;46113;50.130;8.526;2023-09-18T09:43:09;98371.06;;;18.69;70.67
27685;BME280;46113;50.130;8.526;2023-09-18T09:45:36;98374.41;;;18.62;69.00
27685;BME280;46113;50.130;8.526;2023-09-18T09:48:04;98376.59;;;18.75;67.90
27685;BME280;46113;50.130;8.526;2023-09-18T09:50:35;98386.09;;;18.61;69.42
27685;BME280;46113;50.130;8.526;2023-09-18T09:53:13;98385.81;;;18.73;69.14
27685;BME280;46113;50.130;8.526;2023-09-18T09:55:40;98389.38;;;18.38;67.81
27685;BME280;46113;50.130;8.526;2023-09-18T09:58:08;98388.50;;;18.38;69.12
27685;BME280;46113;50.130;8.526;2023-09-18T10:00:44;98393.28;;;18.61;68.79
27685;BME280;46113;50.130;8.526;2023-09-18T10:03:14;98396.78;;;18.53;69.08
27685;BME280;46113;50.130;8.526;2023-09-18T10:05:45;98399.34;;;18.71;69.90
27685;BME280;46113;50.130;8.526;2023-09-18T10:08:19;98403.75;;;18.37;67.37
27685;BME280;46113;50.130;8.526;2023-09-18T10:10:52;98403.31;;;18.50;68.71
27685;BME280;46113;50.130;8.526;2023-09-18T10:13:24;98411.75;;;18.72;68.32
27685;BME280;46113;50.130;8.526;2023-09-18T10:15:53;98411.25;;;18.77;69.18
27685;BME280;46113;50.130;8.526;2023-09-18T10:18:28;98411.22;;;18.69;67.05
27685;BME280;46113;50.130;8.526;2023-09-18T10:23:53;98405.13;;;18.50;66.32
27685;BME280;46113;50.130;8.526;2023-09-18T10:26:26;98399.91;;;18.40;66.01
27685;BME280;46113;50.130;8.526;2023-09-18T10:28:56;98418.22;;;18.53;67.12
27685;BME280;46113;50.130;8.526;2023-09-18T10:31:29;98420.09;;;17.99;67.00
27685;BME280;46113;50.130;8.526;2023-09-18T10:33:58;98437.09;;;18.25;69.59
27685;BME280;46113;50.130;8.526;2023-09-18T10:36:26;98428.50;;;18.13;66.49
27685;BME280;46113;50.130;8.526;2023-09-18T10:38:59;98455.91;;;18.07;67.74
27685;BME280;46113;50.130;8.526;2023-09-18T10:41:26;98458.53;;;17.80;68.03
27685;BME280;46113;50.130;8.526;2023-09-18T10:43:55;98461.78;;;17.84;68.95
27685;BME280;46113;50.130;8.526;2023-09-18T10:46:27;98461.88;;;17.56;69.29
27685;BME280;46113;50.130;8.526;2023-09-18T10:48:54;98460.78;;;17.48;69.98
27685;BME280;46113;50.130;8.526;2023-09-18T10:51:22;98461.03;;;17.73;70.33
27685;BME280;46113;50.130;8.526;2023-09-18T10:53:50;98456.28;;;17.67;69.88
27685;BME280;46113;50.130;8.526;2023-09-18T10:56:20;98452.44;;;17.70;68.88
27685;BME280;46113;50.130;8.526;2023-09-18T10:58:55;98430.09;;;17.71;68.96
27685;BME280;46113;50.130;8.526;2023-09-18T11:01:23;98442.69;;;17.79;68.23
27685;BME280;46113;50.130;8.526;2023-09-18T11:03:50;98437.88;;;17.64;68.48
27685;BME280;46113;50.130;8.526;2023-09-18T11:06:17;98416.31;;;17.84;67.28
27685;BME280;46113;50.130;8.526;2023-09-18T11:08:49;98416.56;;;17.99;68.37
27685;BME280;46113;50.130;8.526;2023-09-18T11:11:18;98417.44;;;18.08;68.08
27685;BME280;46113;50.130;8.526;2023-09-18T11:13:48;98415.03;;;17.96;68.82
27685;BME280;46113;50.130;8.526;2023-09-18T11:16:33;98424.22;;;17.94;70.11
27685;BME280;46113;50.130;8.526;2023-09-18T11:19:09;98431.94;;;17.97;70.39
27685;BME280;46113;50.130;8.526;2023-09-18T11:21:37;98435.31;;;17.81;68.38
27685;BME280;46113;50.130;8.526;2023-09-18T11:24:15;98449.75;;;17.88;68.98
27685;BME280;46113;50.130;8.526;2023-09-18T11:26:45;98459.56;;;17.79;68.17
27685;BME280;46113;50.130;8.526;2023-09-18T11:29:22;98432.53;;;17.91;67.46
27685;BME280;46113;50.130;8.526;2023-09-18T11:31:54;98420.44;;;18.05;68.13
27685;BME280;46113;50.130;8.526;2023-09-18T11:34:29;98423.63;;;18.08;68.63
27685;BME280;46113;50.130;8.526;2023-09-18T11:37:23;98437.69;;;18.37;68.51
27685;BME280;46113;50.130;8.526;2023-09-18T11:39:53;98440.88;;;18.40;67.75
27685;BME280;46113;50.130;8.526;2023-09-18T11:42:21;98435.28;;;18.52;67.00
27685;BME280;46113;50.130;8.526;2023-09-18T11:44:49;98437.25;;;18.42;66.18
27685;BME280;46113;50.130;8.526;2023-09-18T11:47:17;98437.25;;;18.42;66.36
27685;BME280;46113;50.130;8.526;2023-09-18T11:52:21;98431.94;;;19.10;67.37
27685;BME280;46113;50.130;8.526;2023-09-18T11:54:48;98429.09;;;19.11;65.91
27685;BME280;46113;50.130;8.526;2023-09-18T11:57:15;98409.53;;;19.27;64.01
27685;BME280;46113;50.130;8.526;2023-09-18T11:59:42;98410.53;;;19.43;63.77
27685;BME280;46113;50.130;8.526;2023-09-18T12:02:29;98412.22;;;19.69;65.79
27685;BME280;46113;50.130;8.526;2023-09-18T12:05:09;98417.25;;;19.30;64.73
27685;BME280;46113;50.130;8.526;2023-09-18T12:07:36;98418.38;;;19.11;63.94
27685;BME280;46113;50.130;8.526;2023-09-18T12:10:05;98411.38;;;19.35;63.97
27685;BME280;46113;50.130;8.526;2023-09-18T12:12:35;98412.16;;;19.02;63.31
27685;BME280;46113;50.130;8.526;2023-09-18T12:15:03;98403.34;;;18.67;63.97
27685;BME280;46113;50.130;8.526;2023-09-18T12:17:30;98413.28;;;18.83;65.20
27685;BME280;46113;50.130;8.526;2023-09-18T12:19:57;98412.00;;;19.04;63.00
27685;BME280;46113;50.130;8.526;2023-09-18T12:22:27;98424.81;;;18.75;64.52
27685;BME280;46113;50.130;8.526;2023-09-18T12:25:14;98434.09;;;19.06;63.69
27685;BME280;46113;50.130;8.526;2023-09-18T12:27:43;98454.59;;;18.72;62.79
27685;BME280;46113;50.130;8.526;2023-09-18T12:30:11;98451.44;;;18.42;63.39
27685;BME280;46113;50.130;8.526;2023-09-18T12:32:39;98445.34;;;18.58;64.05
27685;BME280;46113;50.130;8.526;2023-09-18T12:35:07;98441.50;;;18.61;64.67
27685;BME280;46113;50.130;8.526;2023-09-18T12:37:40;98456.72;;;18.60;64.27
27685;BME280;46113;50.130;8.526;2023-09-18T12:40:22;98452.53;;;18.58;65.88
27685;BME280;46113;50.130;8.526;2023-09-18T12:42:49;98442.91;;;18.82;66.12
27685;BME280;46113;50.130;8.526;2023-09-18T12:45:16;98450.47;;;18.95;64.40
27685;BME280;46113;50.130;8.526;2023-09-18T12:47:44;98452.75;;;18.73;63.46
27685;BME280;46113;50.130;8.526;2023-09-18T12:50:14;98451.03;;;19.06;62.57
27685;BME280;46113;50.130;8.526;2023-09-18T12:52:41;98457.84;;;18.92;62.57
27685;BME280;46113;50.130;8.526;2023-09-18T12:55:08;98445.03;;;19.29;63.22
27685;BME280;46113;50.130;8.526;2023-09-18T12:57:46;98438.88;;;19.29;65.94
27685;BME280;46113;50.130;8.526;2023-09-18T13:00:13;98444.69;;;19.24;66.03
27685;BME280;46113;50.130;8.526;2023-09-18T13:02:44;98449.09;;;19.25;64.73
27685;BME280;46113;50.130;8.526;2023-09-18T13:05:11;98442.03;;;19.24;63.36
27685;BME280;46113;50.130;8.526;2023-09-18T13:07:44;98442.03;;;19.32;64.45
27685;BME280;46113;50.130;8.526;2023-09-18T13:10:11;98445.06;;;19.21;67.36
27685;BME280;46113;50.130;8.526;2023-09-18T13:12:41;98446.78;;;18.87;65.54
27685;BME280;46113;50.130;8.526;2023-09-18T13:15:08;98453.38;;;18.66;65.16